sensor_id;sensor_type;location;lat;lon;timestamp;P1;durP1;ratioP1;P2;durP2;ratioP2
8656;SDS011;4366;50.764;7.184;2022-12-18T00:03:16;20.00;;;11.87;;
8656;SDS011;4366;50.764;7.184;2022-12-18T00:08:18;21.27;;;12.80;;
8656;SDS011;4366;50.764;7.184;2022-12-18T00:13:19;18.17;;;12.80;;
8656;SDS011;4366;50.764;7.184;2022-12-18T00:18:21;17.73;;;12.70;;
8656;SDS011;4366;50.764;7.184;2022-12-18T00:23:23;15.47;;;10.90;;
8656;SDS011;4366;50.764;7.184;2022-12-18T00:28:24;12.47;;;10.80;;
8656;SDS011;4366;50.764;7.184;2022-12-18T00:33:26;18.10;;;11.63;;
8656;SDS011;4366;50.764;7.184;2022-12-18T00:38:27;12.53;;;10.90;;
8656;SDS011;4366;50.764;7.184;2022-12-18T00:43:29;17.50;;;10.17;;
8656;SDS011;4366;50.764;7.184;2022-12-18T00:48:33;11.87;;;10.50;;
8656;SDS011;4366;50.764;7.184;2022-12-18T00:53:34;15.50;;;10.23;;
8656;SDS011;4366;50.764;7.184;2022-12-18T00:58:36;15.10;;;11.60;;
8656;SDS011;4366;50.764;7.184;2022-12-18T01:03:38;17.03;;;10.77;;
8656;SDS011;4366;50.764;7.184;2022-12-18T01:08:41;17.37;;;12.23;;
8656;SDS011;4366;50.764;7.184;2022-12-18T01:13:46;14.17;;;10.07;;
8656;SDS011;4366;50.764;7.184;2022-12-18T01:18:50;15.90;;;10.00;;
8656;SDS011;4366;50.764;7.184;2022-12-18T01:23:54;17.63;;;10.77;;
8656;SDS011;4366;50.764;7.184;2022-12-18T01:28:57;13.53;;;10.63;;
8656;SDS011;4366;50.764;7.184;2022-12-18T01:34:02;14.60;;;10.27;;
8656;SDS011;4366;50.764;7.184;2022-12-18T01:39:06;18.37;;;12.00;;
8656;SDS011;4366;50.764;7.184;2022-12-18T01:49:53;15.37;;;11.10;;
8656;SDS011;4366;50.764;7.184;2022-12-18T01:54:55;15.83;;;11.00;;
8656;SDS011;4366;50.764;7.184;2022-12-18T02:00:00;14.73;;;10.63;;
8656;SDS011;4366;50.764;7.184;2022-12-18T02:05:29;17.10;;;10.63;;
8656;SDS011;4366;50.764;7.184;2022-12-18T02:10:39;14.47;;;9.53;;
8656;SDS011;4366;50.764;7.184;2022-12-18T02:21:36;17.10;;;10.37;;
8656;SDS011;4366;50.764;7.184;2022-12-18T02:26:56;14.23;;;10.73;;
8656;SDS011;4366;50.764;7.184;2022-12-18T02:32:02;15.90;;;11.30;;
8656;SDS011;4366;50.764;7.184;2022-12-18T02:37:11;16.50;;;11.77;;
8656;SDS011;4366;50.764;7.184;2022-12-18T02:42:14;15.93;;;10.33;;
8656;SDS011;4366;50.764;7.184;2022-12-18T02:47:17;13.70;;;10.77;;
8656;SDS011;4366;50.764;7.184;2022-12-18T02:52:31;15.00;;;10.50;;
8656;SDS011;4366;50.764;7.184;2022-12-18T02:57:45;17.73;;;10.20;;
8656;SDS011;4366;50.764;7.184;2022-12-18T03:13:06;12.17;;;10.07;;
8656;SDS011;4366;50.764;7.184;2022-12-18T03:18:16;18.43;;;11.70;;
8656;SDS011;4366;50.764;7.184;2022-12-18T03:23:21;13.70;;;9.97;;
8656;SDS011;4366;50.764;7.184;2022-12-18T03:28:39;13.43;;;10.03;;
8656;SDS011;4366;50.764;7.184;2022-12-18T03:33:50;16.87;;;8.73;;
8656;SDS011;4366;50.764;7.184;2022-12-18T03:38:58;14.73;;;10.00;;
8656;SDS011;4366;50.764;7.184;2022-12-18T03:44:10;14.10;;;11.07;;
8656;SDS011;4366;50.764;7.184;2022-12-18T03:54:40;13.87;;;10.00;;
8656;SDS011;4366;50.764;7.184;2022-12-18T03:59:47;13.30;;;10.13;;
8656;SDS011;4366;50.764;7.184;2022-12-18T04:04:53;15.13;;;10.40;;
8656;SDS011;4366;50.764;7.184;2022-12-18T04:09:58;15.10;;;10.97;;
8656;SDS011;4366;50.764;7.184;2022-12-18T04:15:02;16.63;;;10.83;;
8656;SDS011;4366;50.764;7.184;2022-12-18T04:20:05;13.70;;;9.47;;
8656;SDS011;4366;50.764;7.184;2022-12-18T04:25:09;14.30;;;10.27;;
8656;SDS011;4366;50.764;7.184;2022-12-18T04:30:18;15.03;;;11.43;;
8656;SDS011;4366;50.764;7.184;2022-12-18T04:35:20;14.63;;;11.00;;
8656;SDS011;4366;50.764;7.184;2022-12-18T04:40:21;12.73;;;10.23;;
8656;SDS011;4366;50.764;7.184;2022-12-18T04:45:24;13.20;;;10.50;;
8656;SDS011;4366;50.764;7.184;2022-12-18T04:50:25;18.70;;;11.00;;
8656;SDS011;4366;50.764;7.184;2022-12-18T04:55:28;12.47;;;9.83;;
8656;SDS011;4366;50.764;7.184;2022-12-18T05:00:30;14.43;;;10.73;;
8656;SDS011;4366;50.764;7.184;2022-12-18T05:05:33;17.87;;;11.20;;
8656;SDS011;4366;50.764;7.184;2022-12-18T05:10:36;15.43;;;11.57;;
8656;SDS011;4366;50.764;7.184;2022-12-18T05:15:38;14.93;;;10.87;;
8656;SDS011;4366;50.764;7.184;2022-12-18T05:20:40;11.50;;;10.17;;
8656;SDS011;4366;50.764;7.184;2022-12-18T05:25:42;13.30;;;10.70;;
8656;SDS011;4366;50.764;7.184;2022-12-18T05:30:51;11.37;;;9.90;;
8656;SDS011;4366;50.764;7.184;2022-12-18T05:35:55;15.57;;;10.90;;
8656;SDS011;4366;50.764;7.184;2022-12-18T05:40:57;16.27;;;12.13;;
8656;SDS011;4366;50.764;7.184;2022-12-18T05:46:03;14.60;;;11.60;;
8656;SDS011;4366;50.764;7.184;2022-12-18T05:51:10;16.70;;;11.73;;
8656;SDS011;4366;50.764;7.184;2022-12-18T05:56:14;16.60;;;11.43;;
8656;SDS011;4366;50.764;7.184;2022-12-18T06:01:18;15.53;;;10.70;;
8656;SDS011;4366;50.764;7.184;2022-12-18T06:06:23;15.47;;;11.90;;
8656;SDS011;4366;50.764;7.184;2022-12-18T06:11:26;16.60;;;11.80;;
8656;SDS011;4366;50.764;7.184;2022-12-18T06:16:28;15.40;;;11.43;;
8656;SDS011;4366;50.764;7.184;2022-12-18T06:21:31;16.60;;;11.77;;
8656;SDS011;4366;50.764;7.184;2022-12-18T06:26:33;18.07;;;11.87;;
8656;SDS011;4366;50.764;7.184;2022-12-18T06:31:35;15.83;;;11.47;;
8656;SDS011;4366;50.764;7.184;2022-12-18T06:36:37;14.30;;;11.07;;
8656;SDS011;4366;50.764;7.184;2022-12-18T06:41:39;14.43;;;11.43;;
8656;SDS011;4366;50.764;7.184;2022-12-18T06:46:40;13.70;;;10.43;;
8656;SDS011;4366;50.764;7.184;2022-12-18T06:51:42;12.93;;;11.63;;
8656;SDS011;4366;50.764;7.184;2022-12-18T06:56:45;14.37;;;10.83;;
8656;SDS011;4366;50.764;7.184;2022-12-18T07:01:47;16.07;;;11.63;;
8656;SDS011;4366;50.764;7.184;2022-12-18T07:06:48;15.17;;;11.60;;
8656;SDS011;4366;50.764;7.184;2022-12-18T07:11:50;14.13;;;10.90;;
8656;SDS011;4366;50.764;7.184;2022-12-18T07:16:52;13.33;;;11.53;;
8656;SDS011;4366;50.764;7.184;2022-12-18T07:21:53;15.97;;;11.53;;
8656;SDS011;4366;50.764;7.184;2022-12-18T07:26:55;18.40;;;11.57;;
8656;SDS011;4366;50.764;7.184;2022-12-18T07:31:57;14.10;;;11.63;;
8656;SDS011;4366;50.764;7.184;2022-12-18T07:36:58;18.40;;;14.37;;
8656;SDS011;4366;50.764;7.184;2022-12-18T07:42:00;13.73;;;11.27;;
8656;SDS011;4366;50.764;7.184;2022-12-18T07:47:22;13.97;;;10.33;;
8656;SDS011;4366;50.764;7.184;2022-12-18T07:52:23;19.00;;;11.57;;
8656;SDS011;4366;50.764;7.184;2022-12-18T07:57:26;18.30;;;12.20;;
8656;SDS011;4366;50.764;7.184;2022-12-18T08:02:48;17.83;;;10.93;;
8656;SDS011;4366;50.764;7.184;2022-12-18T08:07:50;15.20;;;10.87;;
8656;SDS011;4366;50.764;7.184;2022-12-18T08:12:51;17.03;;;11.70;;
8656;SDS011;4366;50.764;7.184;2022-12-18T08:17:56;14.10;;;10.93;;
8656;SDS011;4366;50.764;7.184;2022-12-18T08:22:57;16.87;;;10.50;;
8656;SDS011;4366;50.764;7.184;2022-12-18T08:27:59;13.20;;;10.67;;
8656;SDS011;4366;50.764;7.184;2022-12-18T08:33:01;15.53;;;11.73;;
8656;SDS011;4366;50.764;7.184;2022-12-18T08:38:02;16.67;;;11.13;;
8656;SDS011;4366;50.764;7.184;2022-12-18T08:43:04;16.87;;;11.87;;
8656;SDS011;4366;50.764;7.184;2022-12-18T08:48:24;14.77;;;10.57;;
8656;SDS011;4366;50.764;7.184;2022-12-18T08:53:26;14.30;;;11.13;;
8656;SDS011;4366;50.764;7.184;2022-12-18T08:58:35;15.70;;;11.33;;
8656;SDS011;4366;50.764;7.184;2022-12-18T09:03:37;15.53;;;11.40;;
8656;SDS011;4366;50.764;7.184;2022-12-18T09:08:39;14.70;;;10.23;;
8656;SDS011;4366;50.764;7.184;2022-12-18T09:13:42;16.43;;;9.87;;
8656;SDS011;4366;50.764;7.184;2022-12-18T09:18:44;14.07;;;11.10;;
8656;SDS011;4366;50.764;7.184;2022-12-18T09:23:52;15.00;;;10.20;;
8656;SDS011;4366;50.764;7.184;2022-12-18T09:28:54;17.60;;;11.60;;
8656;SDS011;4366;50.764;7.184;2022-12-18T09:33:57;15.53;;;10.90;;
8656;SDS011;4366;50.764;7.184;2022-12-18T09:38:58;13.73;;;10.47;;
8656;SDS011;4366;50.764;7.184;2022-12-18T09:49:29;16.97;;;10.83;;
8656;SDS011;4366;50.764;7.184;2022-12-18T09:54:36;15.23;;;9.67;;
8656;SDS011;4366;50.764;7.184;2022-12-18T09:59:40;15.60;;;10.00;;
8656;SDS011;4366;50.764;7.184;2022-12-18T10:04:43;13.33;;;9.83;;
8656;SDS011;4366;50.764;7.184;2022-12-18T10:15:02;12.77;;;10.03;;
8656;SDS011;4366;50.764;7.184;2022-12-18T10:25:49;12.03;;;9.30;;
8656;SDS011;4366;50.764;7.184;2022-12-18T10:30:57;13.57;;;9.83;;
8656;SDS011;4366;50.764;7.184;2022-12-18T10:35:59;10.80;;;9.23;;
8656;SDS011;4366;50.764;7.184;2022-12-18T10:41:02;17.80;;;10.57;;
8656;SDS011;4366;50.764;7.184;2022-12-18T10:51:10;13.17;;;9.93;;
8656;SDS011;4366;50.764;7.184;2022-12-18T10:56:22;14.10;;;9.77;;
8656;SDS011;4366;50.764;7.184;2022-12-18T11:01:25;15.53;;;9.87;;
8656;SDS011;4366;50.764;7.184;2022-12-18T11:06:27;13.30;;;10.77;;
8656;SDS011;4366;50.764;7.184;2022-12-18T11:11:29;12.60;;;10.53;;
8656;SDS011;4366;50.764;7.184;2022-12-18T11:16:36;14.93;;;10.37;;
8656;SDS011;4366;50.764;7.184;2022-12-18T11:27:37;16.17;;;10.33;;
8656;SDS011;4366;50.764;7.184;2022-12-18T11:32:39;14.73;;;10.13;;
8656;SDS011;4366;50.764;7.184;2022-12-18T11:37:43;16.00;;;10.23;;
8656;SDS011;4366;50.764;7.184;2022-12-18T11:42:53;14.27;;;10.30;;
8656;SDS011;4366;50.764;7.184;2022-12-18T11:48:02;14.53;;;10.73;;
8656;SDS011;4366;50.764;7.184;2022-12-18T11:53:09;12.57;;;9.87;;
8656;SDS011;4366;50.764;7.184;2022-12-18T12:03:31;15.13;;;10.70;;
8656;SDS011;4366;50.764;7.184;2022-12-18T12:14:09;14.27;;;11.30;;
8656;SDS011;4366;50.764;7.184;2022-12-18T12:41:08;16.10;;;11.53;;
8656;SDS011;4366;50.764;7.184;2022-12-18T12:46:32;18.00;;;12.07;;
8656;SDS011;4366;50.764;7.184;2022-12-18T12:51:41;20.67;;;12.97;;
8656;SDS011;4366;50.764;7.184;2022-12-18T12:56:49;14.80;;;10.47;;
8656;SDS011;4366;50.764;7.184;2022-12-18T13:02:09;15.93;;;11.53;;
8656;SDS011;4366;50.764;7.184;2022-12-18T13:18:20;19.53;;;13.00;;
8656;SDS011;4366;50.764;7.184;2022-12-18T13:33:49;23.27;;;14.33;;
8656;SDS011;4366;50.764;7.184;2022-12-18T13:49:43;18.30;;;12.73;;
8656;SDS011;4366;50.764;7.184;2022-12-18T13:54:47;16.50;;;11.33;;
8656;SDS011;4366;50.764;7.184;2022-12-18T13:59:52;18.80;;;11.97;;
8656;SDS011;4366;50.764;7.184;2022-12-18T14:04:54;18.53;;;13.17;;
8656;SDS011;4366;50.764;7.184;2022-12-18T14:10:00;18.13;;;12.80;;
8656;SDS011;4366;50.764;7.184;2022-12-18T14:15:25;17.97;;;12.37;;
8656;SDS011;4366;50.764;7.184;2022-12-18T14:20:29;18.73;;;11.77;;
8656;SDS011;4366;50.764;7.184;2022-12-18T14:25:32;19.50;;;12.40;;
8656;SDS011;4366;50.764;7.184;2022-12-18T14:35:38;17.83;;;11.77;;
8656;SDS011;4366;50.764;7.184;2022-12-18T14:40:44;16.50;;;11.43;;
8656;SDS011;4366;50.764;7.184;2022-12-18T14:45:46;19.80;;;12.53;;
8656;SDS011;4366;50.764;7.184;2022-12-18T14:56:24;18.13;;;12.70;;
8656;SDS011;4366;50.764;7.184;2022-12-18T15:06:34;17.70;;;13.47;;
8656;SDS011;4366;50.764;7.184;2022-12-18T15:16:39;20.63;;;13.13;;
8656;SDS011;4366;50.764;7.184;2022-12-18T15:21:46;18.53;;;12.13;;
8656;SDS011;4366;50.764;7.184;2022-12-18T15:26:48;19.77;;;12.87;;
8656;SDS011;4366;50.764;7.184;2022-12-18T15:32:02;19.80;;;13.27;;
8656;SDS011;4366;50.764;7.184;2022-12-18T15:37:06;20.27;;;13.63;;
8656;SDS011;4366;50.764;7.184;2022-12-18T15:42:09;19.77;;;13.37;;
8656;SDS011;4366;50.764;7.184;2022-12-18T15:47:30;20.40;;;13.40;;
8656;SDS011;4366;50.764;7.184;2022-12-18T15:52:32;18.80;;;12.73;;
8656;SDS011;4366;50.764;7.184;2022-12-18T15:57:46;24.27;;;14.10;;
8656;SDS011;4366;50.764;7.184;2022-12-18T16:02:48;22.30;;;14.37;;
8656;SDS011;4366;50.764;7.184;2022-12-18T16:07:50;23.23;;;13.70;;
8656;SDS011;4366;50.764;7.184;2022-12-18T16:12:51;18.07;;;13.13;;
8656;SDS011;4366;50.764;7.184;2022-12-18T16:17:53;18.73;;;12.93;;
8656;SDS011;4366;50.764;7.184;2022-12-18T16:22:55;19.43;;;12.87;;
8656;SDS011;4366;50.764;7.184;2022-12-18T16:27:56;21.47;;;13.83;;
8656;SDS011;4366;50.764;7.184;2022-12-18T16:32:58;20.17;;;14.13;;
8656;SDS011;4366;50.764;7.184;2022-12-18T16:38:00;23.57;;;13.33;;
8656;SDS011;4366;50.764;7.184;2022-12-18T16:43:02;23.30;;;14.40;;
8656;SDS011;4366;50.764;7.184;2022-12-18T16:48:03;24.03;;;14.93;;
8656;SDS011;4366;50.764;7.184;2022-12-18T16:53:05;24.77;;;15.73;;
8656;SDS011;4366;50.764;7.184;2022-12-18T16:58:07;23.47;;;15.57;;
8656;SDS011;4366;50.764;7.184;2022-12-18T17:03:09;24.57;;;15.57;;
8656;SDS011;4366;50.764;7.184;2022-12-18T17:08:10;25.57;;;16.23;;
8656;SDS011;4366;50.764;7.184;2022-12-18T17:13:12;23.83;;;15.53;;
8656;SDS011;4366;50.764;7.184;2022-12-18T17:18:13;26.50;;;15.87;;
8656;SDS011;4366;50.764;7.184;2022-12-18T17:23:15;22.53;;;14.87;;
8656;SDS011;4366;50.764;7.184;2022-12-18T17:28:17;23.07;;;14.80;;
8656;SDS011;4366;50.764;7.184;2022-12-18T17:33:18;26.73;;;16.97;;
8656;SDS011;4366;50.764;7.184;2022-12-18T17:38:20;25.53;;;15.40;;
8656;SDS011;4366;50.764;7.184;2022-12-18T17:43:21;28.23;;;16.17;;
8656;SDS011;4366;50.764;7.184;2022-12-18T17:48:23;25.40;;;15.47;;
8656;SDS011;4366;50.764;7.184;2022-12-18T17:53:26;22.10;;;14.40;;
8656;SDS011;4366;50.764;7.184;2022-12-18T17:58:28;26.93;;;15.23;;
8656;SDS011;4366;50.764;7.184;2022-12-18T18:03:30;25.53;;;16.13;;
8656;SDS011;4366;50.764;7.184;2022-12-18T18:08:34;24.17;;;14.27;;
8656;SDS011;4366;50.764;7.184;2022-12-18T18:13:36;24.77;;;16.43;;
8656;SDS011;4366;50.764;7.184;2022-12-18T18:18:57;25.70;;;14.87;;
8656;SDS011;4366;50.764;7.184;2022-12-18T18:24:02;24.93;;;16.37;;
8656;SDS011;4366;50.764;7.184;2022-12-18T18:29:05;23.13;;;14.83;;
8656;SDS011;4366;50.764;7.184;2022-12-18T18:34:22;23.53;;;14.27;;
8656;SDS011;4366;50.764;7.184;2022-12-18T18:39:28;28.80;;;16.10;;
8656;SDS011;4366;50.764;7.184;2022-12-18T18:44:29;24.87;;;14.83;;
8656;SDS011;4366;50.764;7.184;2022-12-18T18:49:31;22.43;;;14.70;;
8656;SDS011;4366;50.764;7.184;2022-12-18T18:54:33;31.88;;;19.85;;
8656;SDS011;4366;50.764;7.184;2022-12-18T18:59:35;25.23;;;15.50;;
8656;SDS011;4366;50.764;7.184;2022-12-18T19:04:38;24.63;;;15.50;;
8656;SDS011;4366;50.764;7.184;2022-12-18T19:09:46;23.97;;;15.77;;
8656;SDS011;4366;50.764;7.184;2022-12-18T19:14:52;26.20;;;15.30;;
8656;SDS011;4366;50.764;7.184;2022-12-18T19:19:57;27.87;;;16.10;;
8656;SDS011;4366;50.764;7.184;2022-12-18T19:25:05;28.43;;;15.07;;
8656;SDS011;4366;50.764;7.184;2022-12-18T19:30:07;26.50;;;16.77;;
8656;SDS011;4366;50.764;7.184;2022-12-18T19:35:11;31.83;;;16.30;;
8656;SDS011;4366;50.764;7.184;2022-12-18T19:40:13;27.30;;;17.00;;
8656;SDS011;4366;50.764;7.184;2022-12-18T19:45:14;27.97;;;16.00;;
8656;SDS011;4366;50.764;7.184;2022-12-18T19:50:16;28.57;;;16.13;;
8656;SDS011;4366;50.764;7.184;2022-12-18T19:55:18;24.90;;;15.10;;
8656;SDS011;4366;50.764;7.184;2022-12-18T20:00:20;26.03;;;15.23;;
8656;SDS011;4366;50.764;7.184;2022-12-18T20:05:21;29.03;;;16.23;;
8656;SDS011;4366;50.764;7.184;2022-12-18T20:10:25;26.27;;;14.97;;
8656;SDS011;4366;50.764;7.184;2022-12-18T20:15:27;25.93;;;13.97;;
8656;SDS011;4366;50.764;7.184;2022-12-18T20:20:28;26.53;;;14.10;;
8656;SDS011;4366;50.764;7.184;2022-12-18T20:25:31;25.33;;;14.30;;
8656;SDS011;4366;50.764;7.184;2022-12-18T20:30:32;26.63;;;15.00;;
8656;SDS011;4366;50.764;7.184;2022-12-18T20:35:34;23.23;;;13.90;;
8656;SDS011;4366;50.764;7.184;2022-12-18T20:40:39;32.10;;;15.33;;
8656;SDS011;4366;50.764;7.184;2022-12-18T20:45:41;22.90;;;13.70;;
8656;SDS011;4366;50.764;7.184;2022-12-18T20:50:45;24.67;;;14.60;;
8656;SDS011;4366;50.764;7.184;2022-12-18T20:55:46;26.77;;;15.57;;
8656;SDS011;4366;50.764;7.184;2022-12-18T21:00:48;22.73;;;14.00;;
8656;SDS011;4366;50.764;7.184;2022-12-18T21:05:50;25.03;;;14.67;;
8656;SDS011;4366;50.764;7.184;2022-12-18T21:10:52;23.40;;;14.03;;
8656;SDS011;4366;50.764;7.184;2022-12-18T21:15:55;33.27;;;16.97;;
8656;SDS011;4366;50.764;7.184;2022-12-18T21:20:57;26.97;;;14.83;;
8656;SDS011;4366;50.764;7.184;2022-12-18T21:26:13;28.43;;;16.53;;
8656;SDS011;4366;50.764;7.184;2022-12-18T21:31:19;24.83;;;14.53;;
8656;SDS011;4366;50.764;7.184;2022-12-18T21:36:21;24.03;;;14.27;;
8656;SDS011;4366;50.764;7.184;2022-12-18T21:41:23;26.13;;;14.83;;
8656;SDS011;4366;50.764;7.184;2022-12-18T21:46:44;23.10;;;14.83;;
8656;SDS011;4366;50.764;7.184;2022-12-18T21:51:56;26.57;;;15.10;;
8656;SDS011;4366;50.764;7.184;2022-12-18T21:56:59;25.23;;;14.80;;
8656;SDS011;4366;50.764;7.184;2022-12-18T22:02:08;23.10;;;14.03;;
8656;SDS011;4366;50.764;7.184;2022-12-18T22:07:13;26.43;;;15.03;;
8656;SDS011;4366;50.764;7.184;2022-12-18T22:12:15;30.77;;;16.43;;
8656;SDS011;4366;50.764;7.184;2022-12-18T22:17:35;26.90;;;14.73;;
8656;SDS011;4366;50.764;7.184;2022-12-18T22:22:37;25.90;;;15.30;;
8656;SDS011;4366;50.764;7.184;2022-12-18T22:27:39;24.30;;;14.87;;
8656;SDS011;4366;50.764;7.184;2022-12-18T22:32:40;25.27;;;14.03;;
8656;SDS011;4366;50.764;7.184;2022-12-18T22:37:42;26.40;;;14.73;;
8656;SDS011;4366;50.764;7.184;2022-12-18T22:42:43;24.73;;;14.73;;
8656;SDS011;4366;50.764;7.184;2022-12-18T22:47:46;28.80;;;16.20;;
8656;SDS011;4366;50.764;7.184;2022-12-18T22:52:48;28.83;;;15.87;;
8656;SDS011;4366;50.764;7.184;2022-12-18T22:57:49;28.70;;;15.40;;
8656;SDS011;4366;50.764;7.184;2022-12-18T23:02:53;25.50;;;15.33;;
8656;SDS011;4366;50.764;7.184;2022-12-18T23:08:00;28.97;;;15.83;;
8656;SDS011;4366;50.764;7.184;2022-12-18T23:13:02;25.37;;;14.47;;
8656;SDS011;4366;50.764;7.184;2022-12-18T23:18:03;26.50;;;16.13;;
8656;SDS011;4366;50.764;7.184;2022-12-18T23:23:05;28.17;;;15.43;;
8656;SDS011;4366;50.764;7.184;2022-12-18T23:28:07;31.27;;;16.67;;
8656;SDS011;4366;50.764;7.184;2022-12-18T23:33:08;30.57;;;16.60;;
8656;SDS011;4366;50.764;7.184;2022-12-18T23:38:10;23.27;;;15.07;;
8656;SDS011;4366;50.764;7.184;2022-12-18T23:43:11;27.73;;;15.83;;
8656;SDS011;4366;50.764;7.184;2022-12-18T23:48:13;27.40;;;15.10;;
8656;SDS011;4366;50.764;7.184;2022-12-18T23:53:15;27.83;;;16.43;;
8656;SDS011;4366;50.764;7.184;2022-12-18T23:58:17;24.57;;;15.20;;
